createdAt,value
2023-02-24T00:01:24.866Z,6.07
2023-02-24T00:03:53.457Z,4.37
2023-02-24T00:06:20.855Z,6.43
2023-02-24T00:08:47.946Z,5.60
2023-02-24T00:11:16.984Z,5.23
2023-02-24T00:13:46.923Z,5.17
2023-02-24T00:16:17.262Z,6.27
2023-02-24T00:18:45.321Z,5.30
2023-02-24T00:21:14.783Z,5.77
2023-02-24T00:23:43.122Z,5.23
2023-02-24T00:26:11.362Z,5.77
2023-02-24T00:28:38.619Z,4.43
2023-02-24T00:31:07.006Z,5.07
2023-02-24T00:33:34.783Z,5.47
2023-02-24T00:36:28.769Z,4.73
2023-02-24T00:38:57.794Z,6.07
2023-02-24T00:41:29.206Z,4.30
2023-02-24T00:44:08.410Z,5.77
2023-02-24T00:46:45.332Z,4.80
2023-02-24T00:49:17.173Z,6.10
2023-02-24T00:51:45.816Z,5.80
2023-02-24T00:54:16.554Z,4.90
2023-02-24T00:56:45.358Z,5.70
2023-02-24T00:59:13.358Z,5.20
2023-02-24T01:01:41.059Z,5.17
2023-02-24T01:04:11.687Z,4.67
2023-02-24T01:06:48.939Z,6.17
2023-02-24T01:09:17.865Z,5.93
2023-02-24T01:12:04.813Z,5.67
2023-02-24T01:14:33.473Z,5.87
2023-02-24T01:17:01.172Z,5.53
2023-02-24T01:19:31.550Z,4.80
2023-02-24T01:21:59.224Z,6.43
2023-02-24T01:24:26.573Z,5.53
2023-02-24T01:26:53.790Z,4.90
2023-02-24T01:29:24.168Z,4.97
2023-02-24T01:31:51.978Z,5.20
2023-02-24T01:34:19.321Z,5.97
2023-02-24T01:36:47.799Z,5.27
2023-02-24T01:39:15.368Z,5.00
2023-02-24T01:41:44.921Z,6.33
2023-02-24T01:44:15.729Z,5.57
2023-02-24T01:46:43.855Z,5.17
2023-02-24T01:49:15.954Z,5.20
2023-02-24T01:51:52.201Z,4.63
2023-02-24T01:54:21.941Z,5.50
2023-02-24T01:56:51.680Z,4.73
2023-02-24T01:59:19.844Z,5.50
2023-02-24T02:01:48.060Z,4.63
2023-02-24T02:04:32.236Z,5.87
2023-02-24T02:06:59.370Z,4.67
2023-02-24T02:09:26.479Z,4.37
2023-02-24T02:11:53.665Z,4.60
2023-02-24T02:14:22.858Z,4.53
2023-02-24T02:17:19.386Z,3.70
2023-02-24T02:20:15.440Z,3.97
2023-02-24T02:22:42.564Z,5.03
2023-02-24T02:25:16.774Z,4.37
2023-02-24T02:27:52.332Z,3.93
2023-02-24T02:30:19.566Z,4.80
2023-02-24T02:33:06.654Z,4.97
2023-02-24T02:35:36.876Z,4.13
2023-02-24T02:38:27.579Z,3.90
2023-02-24T02:41:02.069Z,3.83
2023-02-24T02:43:36.962Z,4.03
2023-02-24T02:46:15.912Z,4.10
2023-02-24T02:48:54.048Z,4.80
2023-02-24T02:51:25.368Z,4.30
2023-02-24T02:53:56.754Z,4.57
2023-02-24T02:56:26.513Z,4.93
2023-02-24T02:58:56.263Z,3.67
2023-02-24T03:01:25.818Z,3.77
2023-02-24T03:03:54.738Z,3.57
2023-02-24T03:06:35.822Z,4.13
2023-02-24T03:09:19.938Z,5.07
2023-02-24T03:11:53.469Z,5.47
2023-02-24T03:14:24.265Z,4.37
2023-02-24T03:16:53.323Z,4.97
2023-02-24T03:19:24.287Z,3.67
2023-02-24T03:21:57.257Z,4.70
2023-02-24T03:24:24.497Z,4.23
2023-02-24T03:26:53.346Z,4.37
2023-02-24T03:29:26.575Z,4.00
2023-02-24T03:32:00.676Z,3.90
2023-02-24T03:34:29.014Z,5.13
2023-02-24T03:36:56.852Z,4.33
2023-02-24T03:39:24.381Z,4.33
2023-02-24T03:42:01.964Z,3.70
2023-02-24T03:44:29.468Z,3.80
2023-02-24T03:46:56.637Z,3.90
2023-02-24T03:49:25.225Z,4.00
2023-02-24T03:51:59.647Z,4.60
2023-02-24T03:54:37.299Z,3.77
2023-02-24T03:57:07.274Z,4.57
2023-02-24T03:59:34.350Z,4.40
2023-02-24T04:02:21.753Z,3.83
2023-02-24T04:05:09.804Z,4.67
2023-02-24T04:07:42.923Z,3.37
2023-02-24T04:10:33.182Z,2.90
2023-02-24T04:13:11.684Z,3.27
2023-02-24T04:15:43.877Z,3.73
2023-02-24T04:18:16.644Z,3.60
2023-02-24T04:20:45.438Z,3.80
2023-02-24T04:23:14.974Z,3.43
2023-02-24T04:25:43.961Z,3.50
2023-02-24T04:28:12.067Z,3.87
2023-02-24T04:30:41.305Z,2.60
2023-02-24T04:33:09.947Z,3.20
2023-02-24T04:35:37.902Z,3.20
2023-02-24T04:38:05.563Z,3.47
2023-02-24T04:40:32.720Z,3.73
2023-02-24T04:43:00.125Z,3.73
2023-02-24T04:45:28.859Z,3.47
2023-02-24T04:47:58.049Z,3.40
2023-02-24T04:50:26.045Z,3.33
2023-02-24T04:52:54.546Z,3.77
2023-02-24T04:55:22.658Z,3.40
2023-02-24T04:57:50.342Z,2.73
2023-02-24T05:00:21.832Z,3.10
2023-02-24T05:02:49.949Z,3.43
2023-02-24T05:05:17.844Z,2.93
2023-02-24T05:07:48.504Z,4.83
2023-02-24T05:10:15.973Z,3.80
2023-02-24T05:12:43.730Z,3.03
2023-02-24T05:15:12.434Z,2.77
2023-02-24T05:17:40.857Z,3.60
2023-02-24T05:20:27.534Z,3.83
2023-02-24T05:22:57.136Z,2.63
2023-02-24T05:25:25.407Z,3.70
2023-02-24T05:27:52.544Z,3.13
2023-02-24T05:30:21.101Z,3.03
2023-02-24T05:32:48.242Z,3.07
2023-02-24T05:35:15.331Z,3.17
2023-02-24T05:37:42.527Z,3.37
2023-02-24T05:40:13.229Z,3.87
2023-02-24T05:42:41.343Z,3.53
2023-02-24T05:45:10.995Z,3.20
2023-02-24T05:47:40.304Z,3.57
2023-02-24T05:50:09.344Z,3.77
2023-02-24T05:52:37.872Z,3.03
2023-02-24T05:55:06.809Z,3.97
2023-02-24T05:57:35.669Z,3.93
2023-02-24T06:00:16.291Z,3.23
2023-02-24T06:02:49.641Z,3.47
2023-02-24T06:05:25.563Z,4.67
2023-02-24T06:08:06.025Z,3.80
2023-02-24T06:10:34.429Z,3.63
2023-02-24T06:13:02.449Z,5.27
2023-02-24T06:15:30.233Z,3.80
2023-02-24T06:17:57.306Z,4.17
2023-02-24T06:20:26.679Z,3.83
2023-02-24T06:22:57.354Z,4.10
2023-02-24T06:25:25.602Z,3.43
2023-02-24T06:27:55.519Z,3.70
2023-02-24T06:30:24.571Z,4.23
2023-02-24T06:32:52.253Z,3.60
2023-02-24T06:35:19.939Z,4.03
2023-02-24T06:37:47.374Z,4.30
2023-02-24T06:40:17.943Z,3.73
2023-02-24T06:42:49.055Z,4.17
2023-02-24T06:45:16.884Z,4.00
2023-02-24T06:47:46.379Z,4.57
2023-02-24T06:50:13.464Z,6.23
2023-02-24T06:52:40.772Z,4.03
2023-02-24T06:55:25.128Z,5.43
2023-02-24T06:57:57.322Z,4.13
2023-02-24T07:00:40.886Z,3.73
2023-02-24T07:03:15.235Z,3.90
2023-02-24T07:06:11.077Z,3.37
2023-02-24T07:08:38.751Z,3.33
2023-02-24T07:11:08.123Z,4.40
2023-02-24T07:13:36.738Z,5.30
2023-02-24T07:16:07.198Z,4.20
2023-02-24T07:18:37.075Z,3.20
2023-02-24T07:21:13.457Z,3.87
2023-02-24T07:23:41.710Z,3.43
2023-02-24T07:26:10.173Z,3.83
2023-02-24T07:28:40.022Z,4.13
2023-02-24T07:31:11.802Z,3.90
2023-02-24T07:33:39.950Z,3.77
2023-02-24T07:36:10.901Z,3.37
2023-02-24T07:38:38.636Z,3.60
2023-02-24T07:41:06.790Z,4.07
2023-02-24T07:43:34.502Z,3.77
2023-02-24T07:46:07.902Z,3.40
2023-02-24T07:48:36.344Z,3.23
2023-02-24T07:51:07.391Z,3.57
2023-02-24T07:53:34.963Z,4.40
2023-02-24T07:56:07.030Z,4.50
2023-02-24T07:58:34.240Z,3.30
2023-02-24T08:01:08.551Z,3.10
2023-02-24T08:03:41.232Z,3.63
2023-02-24T08:06:26.905Z,3.47
2023-02-24T08:09:10.867Z,3.33
2023-02-24T08:11:42.615Z,3.30
2023-02-24T08:14:10.934Z,3.37
2023-02-24T08:16:41.047Z,3.23
2023-02-24T08:19:12.873Z,3.00
2023-02-24T08:21:41.496Z,3.23
2023-02-24T08:24:17.736Z,3.17
2023-02-24T08:26:45.720Z,3.33
2023-02-24T08:29:13.483Z,2.90
2023-02-24T08:31:40.713Z,3.33
2023-02-24T08:34:08.088Z,2.83
2023-02-24T08:36:35.206Z,3.93
2023-02-24T08:39:02.351Z,3.00
2023-02-24T08:41:44.833Z,3.30
2023-02-24T08:44:12.843Z,3.53
2023-02-24T08:46:40.963Z,3.47
2023-02-24T08:49:10.870Z,3.77
2023-02-24T08:51:43.644Z,3.20
2023-02-24T08:54:15.443Z,3.53
2023-02-24T08:56:44.402Z,3.03
2023-02-24T08:59:28.997Z,3.60
2023-02-24T09:02:18.547Z,2.90
2023-02-24T09:04:46.754Z,3.03
2023-02-24T09:07:16.619Z,2.40
2023-02-24T09:09:44.285Z,4.47
2023-02-24T09:12:21.780Z,2.67
2023-02-24T09:14:55.444Z,3.00
2023-02-24T09:17:40.121Z,3.20
2023-02-24T09:20:30.184Z,3.07
2023-02-24T09:23:03.356Z,2.70
2023-02-24T09:25:41.132Z,3.10
2023-02-24T09:28:08.507Z,3.83
2023-02-24T09:30:50.939Z,2.57
2023-02-24T09:33:20.985Z,3.23
2023-02-24T09:35:52.040Z,3.17
2023-02-24T09:38:20.619Z,3.00
2023-02-24T09:40:49.708Z,3.00
2023-02-24T09:43:18.789Z,3.17
2023-02-24T09:45:53.507Z,2.97
2023-02-24T09:48:27.283Z,3.27
2023-02-24T09:51:05.650Z,3.90
2023-02-24T09:53:49.238Z,3.20
2023-02-24T09:56:16.529Z,3.13
2023-02-24T09:58:49.770Z,3.43
2023-02-24T10:01:30.986Z,3.83
2023-02-24T10:04:19.566Z,3.27
2023-02-24T10:06:47.616Z,3.37
2023-02-24T10:09:24.406Z,3.00
2023-02-24T10:11:55.662Z,3.80
2023-02-24T10:14:24.166Z,4.00
2023-02-24T10:17:24.047Z,3.37
2023-02-24T10:19:59.824Z,3.80
2023-02-24T10:22:29.789Z,3.77
2023-02-24T10:25:21.145Z,4.00
2023-02-24T10:27:53.236Z,4.30
2023-02-24T10:30:20.351Z,4.53
2023-02-24T10:33:00.165Z,4.27
2023-02-24T10:35:33.501Z,4.33
2023-02-24T10:38:10.737Z,3.70
2023-02-24T10:40:48.166Z,4.10
2023-02-24T10:43:19.323Z,3.40
2023-02-24T10:45:47.863Z,5.43
2023-02-24T10:48:41.356Z,4.30
2023-02-24T10:51:11.878Z,3.50
2023-02-24T10:53:39.273Z,3.63
2023-02-24T10:56:27.026Z,3.63
2023-02-24T10:59:48.241Z,3.67
2023-02-24T11:02:48.755Z,4.23
2023-02-24T11:05:38.192Z,3.97
2023-02-24T11:08:07.864Z,4.40
2023-02-24T11:10:52.832Z,3.70
2023-02-24T11:13:39.406Z,3.97
2023-02-24T11:16:27.534Z,4.40
2023-02-24T11:18:54.907Z,4.00
2023-02-24T11:21:24.527Z,3.77
2023-02-24T11:23:53.515Z,3.40
2023-02-24T11:26:26.480Z,3.40
2023-02-24T11:28:53.516Z,3.67
2023-02-24T11:31:27.841Z,3.90
2023-02-24T11:34:06.053Z,3.40
2023-02-24T11:36:43.353Z,3.43
2023-02-24T11:39:21.284Z,3.40
2023-02-24T11:41:53.123Z,3.37
2023-02-24T11:44:29.438Z,4.00
2023-02-24T11:46:58.282Z,3.73
2023-02-24T11:49:35.677Z,3.50
2023-02-24T11:52:04.627Z,3.60
2023-02-24T11:54:38.245Z,3.67
2023-02-24T11:57:06.195Z,4.87
2023-02-24T11:59:33.212Z,3.70
2023-02-24T12:02:23.637Z,3.53
2023-02-24T12:05:12.253Z,3.80
2023-02-24T12:07:43.519Z,3.63
2023-02-24T12:10:17.189Z,3.17
2023-02-24T12:12:53.670Z,3.40
2023-02-24T12:15:40.337Z,4.37
2023-02-24T12:18:07.525Z,3.73
2023-02-24T12:20:41.514Z,3.80
2023-02-24T12:23:23.307Z,3.67
2023-02-24T12:25:53.826Z,3.83
2023-02-24T12:28:42.697Z,3.17
2023-02-24T12:31:25.454Z,4.07
2023-02-24T12:34:00.258Z,4.03
2023-02-24T12:36:31.110Z,4.40
2023-02-24T12:39:15.871Z,3.87
2023-02-24T12:41:58.026Z,4.20
2023-02-24T12:44:29.134Z,3.83
2023-02-24T12:47:03.847Z,4.17
2023-02-24T12:49:30.988Z,4.53
2023-02-24T12:52:16.883Z,4.80
2023-02-24T12:55:02.651Z,4.77
2023-02-24T12:57:41.620Z,3.93
2023-02-24T13:00:14.619Z,4.40
2023-02-24T13:03:00.693Z,4.10
2023-02-24T13:05:32.291Z,3.97
2023-02-24T13:08:02.051Z,4.50
2023-02-24T13:10:41.597Z,5.00
2023-02-24T13:13:08.736Z,4.50
2023-02-24T13:15:36.156Z,4.43
2023-02-24T13:18:03.250Z,5.07
2023-02-24T13:20:34.794Z,5.30
2023-02-24T13:23:03.571Z,4.53
2023-02-24T13:25:37.572Z,4.73
2023-02-24T13:28:06.128Z,4.40
2023-02-24T13:30:33.204Z,4.40
2023-02-24T13:33:20.533Z,4.20
2023-02-24T13:35:48.524Z,4.20
2023-02-24T13:38:33.645Z,4.60
2023-02-24T13:41:08.563Z,4.50
2023-02-24T13:43:35.869Z,5.43
2023-02-24T13:46:05.106Z,4.93
2023-02-24T13:48:45.988Z,5.00
2023-02-24T13:51:28.412Z,5.20
2023-02-24T13:54:04.254Z,5.33
2023-02-24T13:56:50.092Z,5.17
2023-02-24T13:59:17.137Z,5.20
2023-02-24T14:02:10.267Z,5.97
2023-02-24T14:04:39.616Z,5.03
2023-02-24T14:07:10.973Z,5.43
2023-02-24T14:09:45.769Z,5.37
2023-02-24T14:12:20.220Z,6.10
2023-02-24T14:14:49.200Z,6.27
2023-02-24T14:17:30.606Z,5.87
2023-02-24T14:20:18.958Z,6.20
2023-02-24T14:22:55.412Z,5.77
2023-02-24T14:25:23.502Z,6.23
2023-02-24T14:27:52.444Z,6.63
2023-02-24T14:30:31.438Z,5.90
2023-02-24T14:32:58.837Z,6.17
2023-02-24T14:35:41.655Z,7.17
2023-02-24T14:38:38.550Z,7.23
2023-02-24T14:41:25.490Z,6.87
2023-02-24T14:43:52.833Z,6.93
2023-02-24T14:46:20.436Z,6.93
2023-02-24T14:48:54.015Z,6.33
2023-02-24T14:51:33.889Z,6.37
2023-02-24T14:54:05.786Z,7.63
2023-02-24T14:56:34.558Z,6.53
2023-02-24T14:59:08.212Z,7.10
2023-02-24T15:01:42.331Z,6.90
2023-02-24T15:04:30.468Z,7.10
2023-02-24T15:06:57.483Z,6.03
2023-02-24T15:09:28.916Z,7.37
2023-02-24T15:11:56.429Z,7.00
2023-02-24T15:14:32.876Z,7.17
2023-02-24T15:17:03.332Z,9.53
2023-02-24T15:19:43.986Z,7.07
2023-02-24T15:22:28.657Z,7.10
2023-02-24T15:25:10.866Z,8.27
2023-02-24T15:27:37.620Z,7.90
2023-02-24T15:30:25.075Z,7.73
2023-02-24T15:33:20.565Z,7.47
2023-02-24T15:35:50.924Z,7.33
2023-02-24T15:38:24.604Z,7.47
2023-02-24T15:40:57.200Z,6.67
2023-02-24T15:43:38.720Z,6.37
2023-02-24T15:46:33.947Z,6.17
2023-02-24T15:49:04.788Z,5.90
2023-02-24T15:51:38.841Z,6.07
2023-02-24T15:54:15.180Z,6.47
2023-02-24T15:56:42.897Z,5.13
2023-02-24T15:59:14.884Z,5.40
2023-02-24T16:01:41.872Z,5.23
2023-02-24T16:04:14.050Z,4.60
2023-02-24T16:06:43.788Z,7.10
2023-02-24T16:09:15.597Z,5.00
2023-02-24T16:11:45.099Z,4.50
2023-02-24T16:14:16.771Z,4.43
2023-02-24T16:16:44.617Z,4.23
2023-02-24T16:19:14.648Z,3.97
2023-02-24T16:21:41.334Z,4.20
2023-02-24T16:24:08.032Z,4.67
2023-02-24T16:26:40.088Z,3.10
2023-02-24T16:29:11.639Z,3.90
2023-02-24T16:31:39.828Z,4.23
2023-02-24T16:34:07.835Z,3.80
2023-02-24T16:36:34.589Z,4.57
2023-02-24T16:39:01.348Z,3.60
2023-02-24T16:41:28.172Z,4.70
2023-02-24T16:43:54.863Z,3.93
2023-02-24T16:46:23.179Z,4.83
2023-02-24T16:48:53.196Z,9.83
2023-02-24T16:51:20.437Z,4.53
2023-02-24T16:53:47.115Z,4.80
2023-02-24T16:56:15.157Z,4.20
2023-02-24T16:58:42.147Z,4.33
2023-02-24T17:01:15.716Z,2.03
2023-02-24T17:03:48.725Z,1.70
2023-02-24T17:06:15.484Z,1.80
2023-02-24T17:08:43.856Z,1.50
2023-02-24T17:11:14.572Z,1.23
2023-02-24T17:13:41.530Z,0.80
2023-02-24T17:16:08.307Z,1.60
2023-02-24T17:18:35.079Z,1.30
2023-02-24T17:21:02.341Z,0.77
2023-02-24T17:23:29.091Z,1.83
2023-02-24T17:25:58.702Z,1.33
2023-02-24T17:28:25.448Z,1.20
2023-02-24T17:30:52.253Z,1.50
2023-02-24T17:33:18.975Z,1.80
2023-02-24T17:35:48.660Z,1.20
2023-02-24T17:38:16.969Z,1.77
2023-02-24T17:40:44.769Z,2.13
2023-02-24T17:43:11.721Z,2.70
2023-02-24T17:45:42.952Z,2.70
2023-02-24T17:48:10.228Z,2.47
2023-02-24T17:50:37.227Z,1.90
2023-02-24T17:53:04.232Z,1.63
2023-02-24T17:55:30.894Z,2.10
2023-02-24T17:58:00.098Z,2.43
2023-02-24T18:00:27.596Z,1.73
2023-02-24T18:02:54.880Z,1.80
2023-02-24T18:05:21.804Z,1.50
2023-02-24T18:07:48.729Z,2.07
2023-02-24T18:10:15.411Z,2.17
2023-02-24T18:12:42.097Z,2.20
2023-02-24T18:15:09.769Z,3.47
2023-02-24T18:17:37.803Z,4.13
2023-02-24T18:20:06.416Z,3.13
2023-02-24T18:22:33.066Z,2.60
2023-02-24T18:25:01.190Z,2.33
2023-02-24T18:27:28.289Z,2.30
2023-02-24T18:29:55.253Z,1.57
2023-02-24T18:32:22.108Z,2.80
2023-02-24T18:34:49.275Z,2.70
2023-02-24T18:37:15.959Z,3.27
2023-02-24T18:39:42.707Z,2.90
2023-02-24T18:42:09.782Z,3.20
2023-02-24T18:44:36.570Z,3.70
2023-02-24T18:47:09.259Z,3.37
2023-02-24T18:49:36.997Z,3.50
2023-02-24T18:52:05.234Z,6.03
2023-02-24T18:54:33.340Z,4.03
2023-02-24T18:57:00.041Z,4.20
2023-02-24T18:59:26.769Z,4.13
2023-02-24T19:01:56.528Z,2.63
2023-02-24T19:04:23.989Z,4.60
2023-02-24T19:06:50.804Z,2.43
2023-02-24T19:09:21.554Z,3.53
2023-02-24T19:11:49.618Z,3.57
2023-02-24T19:14:17.810Z,6.20
2023-02-24T19:16:45.883Z,3.63
2023-02-24T19:19:14.383Z,3.67
2023-02-24T19:21:41.405Z,4.00
2023-02-24T19:24:10.984Z,3.73
2023-02-24T19:26:39.011Z,3.90
2023-02-24T19:29:08.496Z,4.80
2023-02-24T19:31:35.387Z,4.10
2023-02-24T19:34:06.843Z,4.83
2023-02-24T19:36:35.767Z,5.13
2023-02-24T19:39:02.687Z,3.40
2023-02-24T19:41:29.645Z,4.27
2023-02-24T19:43:56.813Z,5.23
2023-02-24T19:46:24.186Z,3.93
2023-02-24T19:48:50.964Z,3.07
2023-02-24T19:51:23.188Z,3.73
2023-02-24T19:53:57.352Z,3.67
2023-02-24T19:56:30.280Z,3.13
2023-02-24T19:58:58.566Z,3.83
2023-02-24T20:01:28.522Z,4.50
2023-02-24T20:03:57.888Z,3.20
2023-02-24T20:06:31.664Z,3.50
2023-02-24T20:08:59.464Z,3.60
2023-02-24T20:11:28.664Z,4.67
2023-02-24T20:13:55.835Z,3.83
2023-02-24T20:16:25.317Z,5.43
2023-02-24T20:18:55.173Z,4.47
2023-02-24T20:21:21.946Z,6.13
2023-02-24T20:23:48.626Z,5.03
2023-02-24T20:26:16.308Z,4.57
2023-02-24T20:28:44.357Z,4.47
2023-02-24T20:31:15.170Z,4.83
2023-02-24T20:33:43.491Z,4.67
2023-02-24T20:36:12.607Z,3.80
2023-02-24T20:38:39.396Z,3.13
2023-02-24T20:41:06.773Z,4.90
2023-02-24T20:43:34.430Z,3.47
2023-02-24T20:46:17.281Z,3.70
2023-02-24T20:48:44.584Z,3.13
2023-02-24T20:51:12.403Z,4.27
2023-02-24T20:53:55.667Z,4.73
2023-02-24T20:56:25.015Z,4.67
2023-02-24T20:58:54.149Z,4.43
2023-02-24T21:01:21.385Z,3.83
2023-02-24T21:03:50.221Z,4.13
2023-02-24T21:06:18.850Z,4.27
2023-02-24T21:08:45.844Z,3.67
2023-02-24T21:11:13.619Z,4.33
2023-02-24T21:13:45.000Z,4.47
2023-02-24T21:16:13.090Z,4.37
2023-02-24T21:18:41.326Z,4.67
2023-02-24T21:21:09.033Z,3.83
2023-02-24T21:23:36.980Z,4.63
2023-02-24T21:26:04.422Z,5.13
2023-02-24T21:28:31.142Z,3.40
2023-02-24T21:30:57.975Z,4.47
2023-02-24T21:33:24.815Z,3.40
2023-02-24T21:35:58.968Z,4.40
2023-02-24T21:38:25.748Z,3.63
2023-02-24T21:40:53.089Z,4.40
2023-02-24T21:43:21.707Z,4.07
2023-02-24T21:45:49.595Z,4.77
2023-02-24T21:48:16.284Z,4.03
2023-02-24T21:50:42.961Z,4.63
2023-02-24T21:53:09.678Z,4.03
2023-02-24T21:55:38.572Z,5.23
2023-02-24T21:58:05.688Z,3.20
2023-02-24T22:00:32.927Z,4.30
2023-02-24T22:02:59.749Z,3.70
2023-02-24T22:05:27.118Z,3.90
2023-02-24T22:07:53.822Z,3.33
2023-02-24T22:10:23.029Z,2.77
2023-02-24T22:12:50.807Z,3.43
2023-02-24T22:15:17.621Z,3.57
2023-02-24T22:17:44.348Z,3.50
2023-02-24T22:20:13.726Z,3.70
2023-02-24T22:22:42.124Z,3.73
2023-02-24T22:25:13.074Z,3.07
2023-02-24T22:27:39.891Z,3.93
2023-02-24T22:30:10.501Z,4.03
2023-02-24T22:32:37.581Z,3.50
2023-02-24T22:35:04.660Z,3.57
2023-02-24T22:37:31.411Z,3.30
2023-02-24T22:39:58.100Z,3.17
2023-02-24T22:42:25.795Z,3.30
2023-02-24T22:44:52.764Z,3.37
2023-02-24T22:47:19.452Z,3.40
2023-02-24T22:49:47.068Z,2.43
2023-02-24T22:52:16.668Z,3.50
2023-02-24T22:54:44.679Z,3.33
2023-02-24T22:57:12.401Z,3.60
2023-02-24T22:59:39.088Z,3.33
2023-02-24T23:02:06.537Z,3.43
2023-02-24T23:04:35.197Z,3.10
2023-02-24T23:07:02.389Z,3.87
2023-02-24T23:09:29.515Z,3.70
2023-02-24T23:11:56.168Z,2.60
2023-02-24T23:14:22.940Z,3.17
2023-02-24T23:16:54.690Z,3.57
2023-02-24T23:19:22.392Z,2.87
2023-02-24T23:21:51.713Z,3.20
2023-02-24T23:24:19.976Z,3.33
2023-02-24T23:26:53.822Z,2.83
2023-02-24T23:29:22.646Z,2.67
2023-02-24T23:31:49.456Z,3.30
2023-02-24T23:34:16.282Z,3.03
2023-02-24T23:36:45.382Z,3.47
2023-02-24T23:39:14.523Z,3.27
2023-02-24T23:41:41.626Z,3.37
2023-02-24T23:44:08.408Z,2.97
2023-02-24T23:46:36.450Z,3.23
2023-02-24T23:49:03.392Z,3.60
2023-02-24T23:51:45.765Z,4.43
2023-02-24T23:54:15.598Z,3.27
2023-02-24T23:56:43.328Z,2.63
2023-02-24T23:59:09.980Z,2.77
